Sparrevohn Lrrs Airport
PASV : now visible

Airfield :











YOU CAN JOIN US ON...

 
LOGIN :

Register | Disclaimer

   EN    FR    IT 

 









Legend :    VFR   Marginal VFR   IFR   Intensive IFR   Very Intensive IFR
Visi :
Ceiling :
>= 8 km
>= 3000ft
5 to 8 km
1000 to 3000 ft
1500m to 5 km
500 to 1000 ft
800 to 1500m
200 to 500 ft
< 800m
< 200 ft
Symbols :   Thunderstorms  Fog  Heavy snow  Heavy precipitations  Wind > 20 kt






- Airport Elevation : 1585 ft
- IATA code : SVW


PASV - Sparrevohn Lrrs

CURRENT METAR :
  • 252304Z AUTO 36023G29KT 7SM SCT008 M21/M26 A2948 RMK AO2 SLP054

EXPIRED METARs :
  • 252255Z AUTO 36024G35KT 5SM BR BKN007 M21/M26 A2947 RMK AO2 SLP050 T12151261
  • 252224Z AUTO 35018G31KT 4SM BR BKN007 M22/M26 A2949 RMK AO2 SLP056
  • 252204Z AUTO 34020G31KT 310V030 2 1/2SM BR BKN005 M22/M26 A2948 RMK AO2 SLP054
  • 252155Z AUTO 34019G31KT 2SM BR BKN005 M22/M26 A2948 RMK AO2 PK WND 36036/2135 SLP054 T12231264
  • 252144Z AUTO 35020G37KT 1 1/2SM BR BKN004 M22/M26 A2948 RMK AO2 SLP053
  • 252055Z AUTO 34022G33KT 1 1/4SM BR BKN005 M23/M26 A2949 RMK AO2 SNB1921E2002 SLP056 T12311265 52003

Expired Forecast.



MET'MAP, your aeronautical weather chart ! - Copyright ORBIFLY December 2007 - Disclaimer

ORBIFLY MET'MAP TEAM :

Programming & Development : Alexandra Zaïnal
Concept & original design : Baudouin d'Aumeries
Assistance for programming : Marc-Olivier Méhu
Technical & hardware support : Manuel Goepfert

Contact : metmap@orbifly.com




SOURCES & CREDITS :

   NOAA       Earth
Advisory